Hancock, Michigan
Current Conditions -  °F | °C
As of 1:53 PM on Monday 20 Oct 2014 (Local Time) from KCMX Reporting Station
Overcast Overcast  
Wind Chill: 41°   Ceiling: 1300
Heat Index: 45°   Visibility: 10mi
Dew Point: 39°   Wind: 7mph
Humidity: 80%   Direction: 360°N
Pressure: 29.9"   Gusts: NA
Location:  47.13°N, 88.58°W
Report Text: KCMX 201753Z AUTO 36006KT 10SM OVC013 07/04 A2990 RMK AO2 SLP133 60000 T00720039 10078 20072 51012
Loading
Personal Weather Stations






























Interactive Weather Map
Tropical Storm Tracking
New forecast layout! Learn more

10-Day Weather Forecast

Advertisements
Track Severe Weather on mobile